sensor_id;sensor_type;location;lat;lon;timestamp;P1;durP1;ratioP1;P2;durP2;ratioP2
56181;SDS011;51963;46.052;14.544;2024-03-02T00:00:23;67.88;;;28.13;;
56181;SDS011;51963;46.052;14.544;2024-03-02T00:02:54;75.68;;;32.30;;
56181;SDS011;51963;46.052;14.544;2024-03-02T00:05:21;91.35;;;34.20;;
56181;SDS011;51963;46.052;14.544;2024-03-02T00:08:09;74.38;;;31.20;;
56181;SDS011;51963;46.052;14.544;2024-03-02T00:10:39;85.40;;;33.95;;
56181;SDS011;51963;46.052;14.544;2024-03-02T00:13:06;90.00;;;33.40;;
56181;SDS011;51963;46.052;14.544;2024-03-02T00:18:43;103.78;;;32.38;;
56181;SDS011;51963;46.052;14.544;2024-03-02T00:21:09;86.15;;;30.42;;
56181;SDS011;51963;46.052;14.544;2024-03-02T00:23:38;89.07;;;32.53;;
56181;SDS011;51963;46.052;14.544;2024-03-02T00:26:11;63.25;;;26.55;;
56181;SDS011;51963;46.052;14.544;2024-03-02T00:28:37;64.85;;;28.08;;
56181;SDS011;51963;46.052;14.544;2024-03-02T00:31:13;67.30;;;27.00;;
56181;SDS011;51963;46.052;14.544;2024-03-02T00:33:46;62.70;;;27.05;;
56181;SDS011;51963;46.052;14.544;2024-03-02T00:36:13;65.22;;;27.88;;
56181;SDS011;51963;46.052;14.544;2024-03-02T00:39:01;65.28;;;26.55;;
56181;SDS011;51963;46.052;14.544;2024-03-02T00:44:15;77.07;;;27.77;;
56181;SDS011;51963;46.052;14.544;2024-03-02T00:46:51;83.30;;;28.80;;
56181;SDS011;51963;46.052;14.544;2024-03-02T00:51:58;68.80;;;26.73;;
56181;SDS011;51963;46.052;14.544;2024-03-02T00:54:25;96.85;;;28.42;;
56181;SDS011;51963;46.052;14.544;2024-03-02T00:57:00;70.60;;;27.40;;
56181;SDS011;51963;46.052;14.544;2024-03-02T00:59:27;68.45;;;28.27;;
56181;SDS011;51963;46.052;14.544;2024-03-02T01:01:52;61.47;;;25.77;;
56181;SDS011;51963;46.052;14.544;2024-03-02T01:04:19;60.80;;;26.45;;
56181;SDS011;51963;46.052;14.544;2024-03-02T01:06:48;68.03;;;27.33;;
56181;SDS011;51963;46.052;14.544;2024-03-02T01:09:13;65.20;;;27.77;;
56181;SDS011;51963;46.052;14.544;2024-03-02T01:11:39;69.82;;;27.70;;
56181;SDS011;51963;46.052;14.544;2024-03-02T01:14:05;69.10;;;27.17;;
56181;SDS011;51963;46.052;14.544;2024-03-02T01:16:31;74.80;;;29.42;;
56181;SDS011;51963;46.052;14.544;2024-03-02T01:18:59;68.72;;;29.48;;
56181;SDS011;51963;46.052;14.544;2024-03-02T01:23:50;77.75;;;28.10;;
56181;SDS011;51963;46.052;14.544;2024-03-02T01:26:16;73.55;;;28.05;;
56181;SDS011;51963;46.052;14.544;2024-03-02T01:28:42;73.13;;;27.75;;
56181;SDS011;51963;46.052;14.544;2024-03-02T01:31:08;68.72;;;27.45;;
56181;SDS011;51963;46.052;14.544;2024-03-02T01:33:33;57.85;;;24.27;;
56181;SDS011;51963;46.052;14.544;2024-03-02T01:35:59;54.45;;;23.70;;
56181;SDS011;51963;46.052;14.544;2024-03-02T01:38:24;54.63;;;24.80;;
56181;SDS011;51963;46.052;14.544;2024-03-02T01:40:50;73.45;;;28.02;;
56181;SDS011;51963;46.052;14.544;2024-03-02T01:43:17;60.13;;;26.20;;
56181;SDS011;51963;46.052;14.544;2024-03-02T01:45:54;63.95;;;27.23;;
56181;SDS011;51963;46.052;14.544;2024-03-02T01:48:31;64.25;;;27.55;;
56181;SDS011;51963;46.052;14.544;2024-03-02T01:50:56;63.22;;;25.60;;
56181;SDS011;51963;46.052;14.544;2024-03-02T01:53:23;60.28;;;24.45;;
56181;SDS011;51963;46.052;14.544;2024-03-02T01:55:49;61.95;;;25.98;;
56181;SDS011;51963;46.052;14.544;2024-03-02T01:58:32;64.43;;;25.77;;
56181;SDS011;51963;46.052;14.544;2024-03-02T02:00:58;64.32;;;25.52;;
56181;SDS011;51963;46.052;14.544;2024-03-02T02:03:24;64.15;;;26.27;;
56181;SDS011;51963;46.052;14.544;2024-03-02T02:05:50;61.80;;;24.92;;
56181;SDS011;51963;46.052;14.544;2024-03-02T02:08:18;62.10;;;24.60;;
56181;SDS011;51963;46.052;14.544;2024-03-02T02:10:46;70.70;;;25.83;;
56181;SDS011;51963;46.052;14.544;2024-03-02T02:15:37;61.85;;;22.83;;
56181;SDS011;51963;46.052;14.544;2024-03-02T02:18:03;61.63;;;25.55;;
56181;SDS011;51963;46.052;14.544;2024-03-02T02:20:33;58.05;;;24.58;;
56181;SDS011;51963;46.052;14.544;2024-03-02T02:22:59;65.28;;;24.55;;
56181;SDS011;51963;46.052;14.544;2024-03-02T02:25:31;64.75;;;25.05;;
56181;SDS011;51963;46.052;14.544;2024-03-02T02:27:57;66.40;;;24.75;;
56181;SDS011;51963;46.052;14.544;2024-03-02T02:30:24;62.60;;;24.38;;
56181;SDS011;51963;46.052;14.544;2024-03-02T02:32:51;60.45;;;24.70;;
56181;SDS011;51963;46.052;14.544;2024-03-02T02:35:20;63.63;;;24.20;;
56181;SDS011;51963;46.052;14.544;2024-03-02T02:37:46;64.68;;;24.35;;
56181;SDS011;51963;46.052;14.544;2024-03-02T02:40:12;63.65;;;24.42;;
56181;SDS011;51963;46.052;14.544;2024-03-02T02:42:38;58.40;;;23.70;;
56181;SDS011;51963;46.052;14.544;2024-03-02T02:45:12;55.67;;;22.20;;
56181;SDS011;51963;46.052;14.544;2024-03-02T02:47:40;62.17;;;23.02;;
56181;SDS011;51963;46.052;14.544;2024-03-02T02:50:11;52.83;;;21.48;;
56181;SDS011;51963;46.052;14.544;2024-03-02T02:52:38;52.40;;;22.25;;
56181;SDS011;51963;46.052;14.544;2024-03-02T02:55:10;56.10;;;22.15;;
56181;SDS011;51963;46.052;14.544;2024-03-02T03:00:28;59.15;;;23.33;;
56181;SDS011;51963;46.052;14.544;2024-03-02T03:02:54;59.88;;;22.02;;
56181;SDS011;51963;46.052;14.544;2024-03-02T03:08:34;54.80;;;22.08;;
56181;SDS011;51963;46.052;14.544;2024-03-02T03:11:00;51.33;;;21.33;;
56181;SDS011;51963;46.052;14.544;2024-03-02T03:13:26;49.58;;;21.77;;
56181;SDS011;51963;46.052;14.544;2024-03-02T03:15:54;44.53;;;20.88;;
56181;SDS011;51963;46.052;14.544;2024-03-02T03:18:45;44.35;;;20.10;;
56181;SDS011;51963;46.052;14.544;2024-03-02T03:24:09;45.05;;;20.88;;
56181;SDS011;51963;46.052;14.544;2024-03-02T03:26:38;51.00;;;22.95;;
56181;SDS011;51963;46.052;14.544;2024-03-02T03:29:06;52.70;;;21.95;;
56181;SDS011;51963;46.052;14.544;2024-03-02T03:31:32;50.65;;;21.60;;
56181;SDS011;51963;46.052;14.544;2024-03-02T03:33:58;54.03;;;21.80;;
56181;SDS011;51963;46.052;14.544;2024-03-02T03:36:23;54.05;;;21.63;;
56181;SDS011;51963;46.052;14.544;2024-03-02T03:38:53;52.75;;;21.23;;
56181;SDS011;51963;46.052;14.544;2024-03-02T03:41:19;50.20;;;20.15;;
56181;SDS011;51963;46.052;14.544;2024-03-02T03:43:44;53.72;;;22.05;;
56181;SDS011;51963;46.052;14.544;2024-03-02T03:46:19;59.58;;;22.52;;
56181;SDS011;51963;46.052;14.544;2024-03-02T03:48:45;54.72;;;20.90;;
56181;SDS011;51963;46.052;14.544;2024-03-02T03:51:10;54.63;;;22.02;;
56181;SDS011;51963;46.052;14.544;2024-03-02T03:53:39;51.45;;;21.33;;
56181;SDS011;51963;46.052;14.544;2024-03-02T03:56:04;56.08;;;21.80;;
56181;SDS011;51963;46.052;14.544;2024-03-02T03:58:30;56.47;;;21.67;;
56181;SDS011;51963;46.052;14.544;2024-03-02T04:00:56;61.47;;;24.08;;
56181;SDS011;51963;46.052;14.544;2024-03-02T04:03:21;57.67;;;22.80;;
56181;SDS011;51963;46.052;14.544;2024-03-02T04:05:47;59.40;;;22.67;;
56181;SDS011;51963;46.052;14.544;2024-03-02T04:08:13;62.58;;;22.70;;
56181;SDS011;51963;46.052;14.544;2024-03-02T04:10:41;61.80;;;23.13;;
56181;SDS011;51963;46.052;14.544;2024-03-02T04:13:07;57.83;;;22.73;;
56181;SDS011;51963;46.052;14.544;2024-03-02T04:15:33;60.05;;;22.73;;
56181;SDS011;51963;46.052;14.544;2024-03-02T04:18:01;59.75;;;22.23;;
56181;SDS011;51963;46.052;14.544;2024-03-02T04:20:26;56.60;;;22.23;;
56181;SDS011;51963;46.052;14.544;2024-03-02T04:22:52;55.70;;;21.80;;
56181;SDS011;51963;46.052;14.544;2024-03-02T04:25:18;53.92;;;21.45;;
56181;SDS011;51963;46.052;14.544;2024-03-02T04:27:47;51.20;;;19.95;;
56181;SDS011;51963;46.052;14.544;2024-03-02T04:32:39;49.00;;;19.50;;
56181;SDS011;51963;46.052;14.544;2024-03-02T04:35:05;47.63;;;19.48;;
56181;SDS011;51963;46.052;14.544;2024-03-02T04:37:37;47.53;;;19.70;;
56181;SDS011;51963;46.052;14.544;2024-03-02T04:40:07;43.88;;;18.90;;
56181;SDS011;51963;46.052;14.544;2024-03-02T04:42:33;42.10;;;18.45;;
56181;SDS011;51963;46.052;14.544;2024-03-02T04:44:59;41.55;;;19.08;;
56181;SDS011;51963;46.052;14.544;2024-03-02T04:47:25;43.85;;;19.33;;
56181;SDS011;51963;46.052;14.544;2024-03-02T04:49:54;44.60;;;19.10;;
56181;SDS011;51963;46.052;14.544;2024-03-02T04:52:23;39.85;;;18.85;;
56181;SDS011;51963;46.052;14.544;2024-03-02T04:54:49;39.05;;;18.17;;
56181;SDS011;51963;46.052;14.544;2024-03-02T04:57:36;40.97;;;18.27;;
56181;SDS011;51963;46.052;14.544;2024-03-02T05:00:01;42.67;;;18.50;;
56181;SDS011;51963;46.052;14.544;2024-03-02T05:02:35;48.20;;;21.08;;
56181;SDS011;51963;46.052;14.544;2024-03-02T05:05:01;51.85;;;20.90;;
56181;SDS011;51963;46.052;14.544;2024-03-02T05:07:39;54.25;;;21.60;;
56181;SDS011;51963;46.052;14.544;2024-03-02T05:10:14;49.80;;;19.95;;
56181;SDS011;51963;46.052;14.544;2024-03-02T05:12:42;54.42;;;21.83;;
56181;SDS011;51963;46.052;14.544;2024-03-02T05:16:15;54.65;;;21.73;;
56181;SDS011;51963;46.052;14.544;2024-03-02T05:21:40;51.90;;;20.08;;
56181;SDS011;51963;46.052;14.544;2024-03-02T05:24:05;55.53;;;21.80;;
56181;SDS011;51963;46.052;14.544;2024-03-02T05:26:31;59.55;;;22.92;;
56181;SDS011;51963;46.052;14.544;2024-03-02T05:28:57;53.90;;;20.98;;
56181;SDS011;51963;46.052;14.544;2024-03-02T05:31:22;64.53;;;22.77;;
56181;SDS011;51963;46.052;14.544;2024-03-02T05:33:48;60.10;;;21.80;;
56181;SDS011;51963;46.052;14.544;2024-03-02T05:36:14;57.42;;;22.13;;
56181;SDS011;51963;46.052;14.544;2024-03-02T05:38:40;58.90;;;21.75;;
56181;SDS011;51963;46.052;14.544;2024-03-02T05:41:05;55.45;;;21.40;;
56181;SDS011;51963;46.052;14.544;2024-03-02T05:43:31;54.13;;;20.10;;
56181;SDS011;51963;46.052;14.544;2024-03-02T05:45:58;53.55;;;21.35;;
56181;SDS011;51963;46.052;14.544;2024-03-02T05:48:30;52.23;;;20.83;;
56181;SDS011;51963;46.052;14.544;2024-03-02T05:50:55;58.78;;;21.27;;
56181;SDS011;51963;46.052;14.544;2024-03-02T05:53:21;60.95;;;22.65;;
56181;SDS011;51963;46.052;14.544;2024-03-02T05:55:47;65.05;;;23.35;;
56181;SDS011;51963;46.052;14.544;2024-03-02T05:58:18;56.00;;;21.58;;
56181;SDS011;51963;46.052;14.544;2024-03-02T06:01:17;53.72;;;20.35;;
56181;SDS011;51963;46.052;14.544;2024-03-02T06:03:43;68.53;;;23.73;;
56181;SDS011;51963;46.052;14.544;2024-03-02T06:06:09;62.55;;;22.00;;
56181;SDS011;51963;46.052;14.544;2024-03-02T06:08:39;60.05;;;22.27;;
56181;SDS011;51963;46.052;14.544;2024-03-02T06:11:22;53.63;;;20.38;;
56181;SDS011;51963;46.052;14.544;2024-03-02T06:13:48;57.38;;;21.45;;
56181;SDS011;51963;46.052;14.544;2024-03-02T06:16:13;61.65;;;21.75;;
56181;SDS011;51963;46.052;14.544;2024-03-02T06:18:39;56.40;;;20.75;;
56181;SDS011;51963;46.052;14.544;2024-03-02T06:21:04;58.15;;;22.00;;
56181;SDS011;51963;46.052;14.544;2024-03-02T06:23:30;61.58;;;22.67;;
56181;SDS011;51963;46.052;14.544;2024-03-02T06:25:57;65.88;;;22.88;;
56181;SDS011;51963;46.052;14.544;2024-03-02T06:28:23;71.20;;;23.73;;
56181;SDS011;51963;46.052;14.544;2024-03-02T06:30:48;62.28;;;23.10;;
56181;SDS011;51963;46.052;14.544;2024-03-02T06:33:14;75.63;;;23.90;;
56181;SDS011;51963;46.052;14.544;2024-03-02T06:35:40;70.55;;;25.48;;
56181;SDS011;51963;46.052;14.544;2024-03-02T06:38:06;76.10;;;24.42;;
56181;SDS011;51963;46.052;14.544;2024-03-02T06:40:31;71.28;;;25.48;;
56181;SDS011;51963;46.052;14.544;2024-03-02T06:42:57;65.93;;;23.55;;
56181;SDS011;51963;46.052;14.544;2024-03-02T06:45:23;73.18;;;23.45;;
56181;SDS011;51963;46.052;14.544;2024-03-02T06:47:51;68.68;;;23.50;;
56181;SDS011;51963;46.052;14.544;2024-03-02T06:50:18;65.43;;;22.85;;
56181;SDS011;51963;46.052;14.544;2024-03-02T06:52:43;69.10;;;21.20;;
56181;SDS011;51963;46.052;14.544;2024-03-02T06:55:09;59.42;;;21.23;;
56181;SDS011;51963;46.052;14.544;2024-03-02T06:57:35;58.85;;;22.10;;
56181;SDS011;51963;46.052;14.544;2024-03-02T07:00:00;57.53;;;21.08;;
56181;SDS011;51963;46.052;14.544;2024-03-02T07:02:27;55.72;;;20.75;;
56181;SDS011;51963;46.052;14.544;2024-03-02T07:04:53;59.15;;;23.10;;
56181;SDS011;51963;46.052;14.544;2024-03-02T07:07:19;64.90;;;21.67;;
56181;SDS011;51963;46.052;14.544;2024-03-02T07:09:44;62.03;;;21.35;;
56181;SDS011;51963;46.052;14.544;2024-03-02T07:12:33;62.92;;;22.08;;
56181;SDS011;51963;46.052;14.544;2024-03-02T07:20:25;75.40;;;23.33;;
56181;SDS011;51963;46.052;14.544;2024-03-02T07:22:59;67.93;;;22.73;;
56181;SDS011;51963;46.052;14.544;2024-03-02T07:25:34;70.18;;;23.40;;
56181;SDS011;51963;46.052;14.544;2024-03-02T07:28:00;72.60;;;24.25;;
56181;SDS011;51963;46.052;14.544;2024-03-02T07:30:25;63.63;;;24.25;;
56181;SDS011;51963;46.052;14.544;2024-03-02T07:32:51;66.72;;;23.48;;
56181;SDS011;51963;46.052;14.544;2024-03-02T07:35:16;72.93;;;26.08;;
56181;SDS011;51963;46.052;14.544;2024-03-02T07:37:43;73.93;;;24.88;;
56181;SDS011;51963;46.052;14.544;2024-03-02T07:40:09;76.93;;;25.92;;
56181;SDS011;51963;46.052;14.544;2024-03-02T07:42:41;70.72;;;25.52;;
56181;SDS011;51963;46.052;14.544;2024-03-02T07:45:07;73.93;;;24.05;;
56181;SDS011;51963;46.052;14.544;2024-03-02T07:47:36;67.53;;;22.92;;
56181;SDS011;51963;46.052;14.544;2024-03-02T07:50:02;73.55;;;25.55;;
56181;SDS011;51963;46.052;14.544;2024-03-02T07:52:31;72.47;;;26.25;;
56181;SDS011;51963;46.052;14.544;2024-03-02T07:54:58;67.53;;;24.13;;
56181;SDS011;51963;46.052;14.544;2024-03-02T07:57:23;71.22;;;23.27;;
56181;SDS011;51963;46.052;14.544;2024-03-02T07:59:49;68.70;;;23.45;;
56181;SDS011;51963;46.052;14.544;2024-03-02T08:02:15;73.80;;;25.75;;
56181;SDS011;51963;46.052;14.544;2024-03-02T08:04:41;70.93;;;24.20;;
56181;SDS011;51963;46.052;14.544;2024-03-02T08:07:10;69.45;;;23.80;;
56181;SDS011;51963;46.052;14.544;2024-03-02T08:09:36;74.25;;;24.38;;
56181;SDS011;51963;46.052;14.544;2024-03-02T08:12:02;61.92;;;22.60;;
56181;SDS011;51963;46.052;14.544;2024-03-02T08:14:28;66.38;;;23.20;;
56181;SDS011;51963;46.052;14.544;2024-03-02T08:16:53;63.38;;;23.33;;
56181;SDS011;51963;46.052;14.544;2024-03-02T08:19:19;64.35;;;22.70;;
56181;SDS011;51963;46.052;14.544;2024-03-02T08:21:45;69.78;;;23.50;;
56181;SDS011;51963;46.052;14.544;2024-03-02T08:24:11;62.78;;;23.02;;
56181;SDS011;51963;46.052;14.544;2024-03-02T08:26:37;65.90;;;22.92;;
56181;SDS011;51963;46.052;14.544;2024-03-02T08:29:02;68.38;;;23.48;;
56181;SDS011;51963;46.052;14.544;2024-03-02T08:31:29;63.80;;;21.88;;
56181;SDS011;51963;46.052;14.544;2024-03-02T08:33:55;60.33;;;22.83;;
56181;SDS011;51963;46.052;14.544;2024-03-02T08:36:22;56.42;;;21.88;;
56181;SDS011;51963;46.052;14.544;2024-03-02T08:38:49;62.10;;;22.63;;
56181;SDS011;51963;46.052;14.544;2024-03-02T08:41:15;62.65;;;22.63;;
56181;SDS011;51963;46.052;14.544;2024-03-02T08:43:41;63.45;;;22.60;;
56181;SDS011;51963;46.052;14.544;2024-03-02T08:46:08;58.20;;;21.88;;
56181;SDS011;51963;46.052;14.544;2024-03-02T08:48:34;55.72;;;20.48;;
56181;SDS011;51963;46.052;14.544;2024-03-02T08:50:59;53.78;;;21.13;;
56181;SDS011;51963;46.052;14.544;2024-03-02T08:53:25;53.65;;;21.95;;
56181;SDS011;51963;46.052;14.544;2024-03-02T08:55:51;52.53;;;20.98;;
56181;SDS011;51963;46.052;14.544;2024-03-02T08:58:17;60.45;;;21.60;;
56181;SDS011;51963;46.052;14.544;2024-03-02T09:00:43;53.80;;;21.35;;
56181;SDS011;51963;46.052;14.544;2024-03-02T09:03:09;53.80;;;19.83;;
56181;SDS011;51963;46.052;14.544;2024-03-02T09:05:35;49.92;;;19.75;;
56181;SDS011;51963;46.052;14.544;2024-03-02T09:08:01;53.85;;;20.70;;
56181;SDS011;51963;46.052;14.544;2024-03-02T09:10:26;54.30;;;20.52;;
56181;SDS011;51963;46.052;14.544;2024-03-02T09:12:52;52.05;;;21.17;;
56181;SDS011;51963;46.052;14.544;2024-03-02T09:15:18;55.05;;;22.60;;
56181;SDS011;51963;46.052;14.544;2024-03-02T09:17:43;51.08;;;19.88;;
56181;SDS011;51963;46.052;14.544;2024-03-02T09:20:10;48.50;;;21.00;;
56181;SDS011;51963;46.052;14.544;2024-03-02T09:22:37;53.65;;;22.30;;
56181;SDS011;51963;46.052;14.544;2024-03-02T09:25:02;53.60;;;20.02;;
56181;SDS011;51963;46.052;14.544;2024-03-02T09:27:28;48.88;;;20.00;;
56181;SDS011;51963;46.052;14.544;2024-03-02T09:29:54;56.22;;;20.48;;
56181;SDS011;51963;46.052;14.544;2024-03-02T09:32:20;52.80;;;22.50;;
56181;SDS011;51963;46.052;14.544;2024-03-02T09:34:45;49.97;;;22.80;;
56181;SDS011;51963;46.052;14.544;2024-03-02T09:37:13;53.90;;;20.40;;
56181;SDS011;51963;46.052;14.544;2024-03-02T09:39:39;47.60;;;20.02;;
56181;SDS011;51963;46.052;14.544;2024-03-02T09:42:05;55.35;;;22.00;;
56181;SDS011;51963;46.052;14.544;2024-03-02T09:44:31;49.40;;;21.00;;
56181;SDS011;51963;46.052;14.544;2024-03-02T09:46:58;47.15;;;20.25;;
56181;SDS011;51963;46.052;14.544;2024-03-02T09:49:23;46.38;;;19.17;;
56181;SDS011;51963;46.052;14.544;2024-03-02T09:51:49;45.42;;;19.75;;
56181;SDS011;51963;46.052;14.544;2024-03-02T09:54:15;45.75;;;19.98;;
56181;SDS011;51963;46.052;14.544;2024-03-02T09:56:41;42.58;;;18.90;;
56181;SDS011;51963;46.052;14.544;2024-03-02T09:59:08;42.33;;;19.27;;
56181;SDS011;51963;46.052;14.544;2024-03-02T10:01:34;37.00;;;17.52;;
56181;SDS011;51963;46.052;14.544;2024-03-02T10:03:59;32.70;;;15.73;;
56181;SDS011;51963;46.052;14.544;2024-03-02T10:06:30;32.97;;;15.93;;
56181;SDS011;51963;46.052;14.544;2024-03-02T10:08:56;31.30;;;15.43;;
56181;SDS011;51963;46.052;14.544;2024-03-02T10:11:25;38.92;;;17.45;;
56181;SDS011;51963;46.052;14.544;2024-03-02T10:16:43;32.08;;;15.48;;
56181;SDS011;51963;46.052;14.544;2024-03-02T10:19:16;31.80;;;15.15;;
56181;SDS011;51963;46.052;14.544;2024-03-02T10:21:53;32.83;;;14.60;;
56181;SDS011;51963;46.052;14.544;2024-03-02T10:24:20;30.15;;;13.88;;
56181;SDS011;51963;46.052;14.544;2024-03-02T10:26:48;29.88;;;14.57;;
56181;SDS011;51963;46.052;14.544;2024-03-02T10:29:14;28.70;;;14.65;;
56181;SDS011;51963;46.052;14.544;2024-03-02T10:31:45;34.60;;;14.48;;
56181;SDS011;51963;46.052;14.544;2024-03-02T10:34:12;32.80;;;16.50;;
56181;SDS011;51963;46.052;14.544;2024-03-02T10:36:42;33.33;;;15.20;;
56181;SDS011;51963;46.052;14.544;2024-03-02T10:39:08;37.92;;;15.88;;
56181;SDS011;51963;46.052;14.544;2024-03-02T10:41:35;30.90;;;14.90;;
56181;SDS011;51963;46.052;14.544;2024-03-02T10:44:07;28.77;;;13.20;;
56181;SDS011;51963;46.052;14.544;2024-03-02T10:46:34;25.90;;;12.93;;
56181;SDS011;51963;46.052;14.544;2024-03-02T10:49:04;24.73;;;13.02;;
56181;SDS011;51963;46.052;14.544;2024-03-02T10:51:34;27.75;;;12.52;;
56181;SDS011;51963;46.052;14.544;2024-03-02T10:54:02;25.80;;;12.57;;
56181;SDS011;51963;46.052;14.544;2024-03-02T10:56:40;29.25;;;13.43;;
56181;SDS011;51963;46.052;14.544;2024-03-02T11:01:52;26.25;;;12.75;;
56181;SDS011;51963;46.052;14.544;2024-03-02T11:04:24;26.92;;;13.48;;
56181;SDS011;51963;46.052;14.544;2024-03-02T11:06:52;22.75;;;12.00;;
56181;SDS011;51963;46.052;14.544;2024-03-02T11:09:25;26.77;;;11.55;;
56181;SDS011;51963;46.052;14.544;2024-03-02T11:11:54;22.90;;;11.80;;
56181;SDS011;51963;46.052;14.544;2024-03-02T11:14:28;24.70;;;11.98;;
56181;SDS011;51963;46.052;14.544;2024-03-02T11:16:57;22.40;;;11.50;;
56181;SDS011;51963;46.052;14.544;2024-03-02T11:19:24;21.98;;;11.00;;
56181;SDS011;51963;46.052;14.544;2024-03-02T11:21:50;19.55;;;10.18;;
56181;SDS011;51963;46.052;14.544;2024-03-02T11:27:14;22.67;;;10.73;;
56181;SDS011;51963;46.052;14.544;2024-03-02T11:32:58;21.13;;;10.48;;
56181;SDS011;51963;46.052;14.544;2024-03-02T11:35:28;21.95;;;10.40;;
56181;SDS011;51963;46.052;14.544;2024-03-02T11:37:54;21.20;;;10.35;;
56181;SDS011;51963;46.052;14.544;2024-03-02T11:40:21;18.73;;;9.07;;
56181;SDS011;51963;46.052;14.544;2024-03-02T11:42:47;18.58;;;9.40;;
56181;SDS011;51963;46.052;14.544;2024-03-02T11:45:16;18.80;;;9.00;;
56181;SDS011;51963;46.052;14.544;2024-03-02T11:47:46;19.08;;;8.93;;
56181;SDS011;51963;46.052;14.544;2024-03-02T11:50:16;13.77;;;7.50;;
56181;SDS011;51963;46.052;14.544;2024-03-02T11:53:07;16.95;;;7.90;;
56181;SDS011;51963;46.052;14.544;2024-03-02T11:58:14;14.27;;;7.57;;
56181;SDS011;51963;46.052;14.544;2024-03-02T12:00:52;13.98;;;7.50;;
56181;SDS011;51963;46.052;14.544;2024-03-02T12:03:23;17.05;;;7.68;;
56181;SDS011;51963;46.052;14.544;2024-03-02T12:08:46;12.68;;;6.70;;
56181;SDS011;51963;46.052;14.544;2024-03-02T12:11:18;12.23;;;6.63;;
56181;SDS011;51963;46.052;14.544;2024-03-02T12:13:52;14.35;;;6.82;;
56181;SDS011;51963;46.052;14.544;2024-03-02T12:16:28;14.15;;;6.30;;
56181;SDS011;51963;46.052;14.544;2024-03-02T12:18:54;13.35;;;6.15;;
56181;SDS011;51963;46.052;14.544;2024-03-02T12:21:19;11.20;;;5.95;;
56181;SDS011;51963;46.052;14.544;2024-03-02T12:23:45;13.52;;;6.03;;
56181;SDS011;51963;46.052;14.544;2024-03-02T12:26:11;16.90;;;8.50;;
56181;SDS011;51963;46.052;14.544;2024-03-02T12:28:36;15.98;;;9.07;;
56181;SDS011;51963;46.052;14.544;2024-03-02T12:31:03;16.73;;;7.57;;
56181;SDS011;51963;46.052;14.544;2024-03-02T12:33:28;13.15;;;7.03;;
56181;SDS011;51963;46.052;14.544;2024-03-02T12:35:56;13.70;;;7.60;;
56181;SDS011;51963;46.052;14.544;2024-03-02T12:38:25;14.85;;;8.05;;
56181;SDS011;51963;46.052;14.544;2024-03-02T12:40:52;17.88;;;8.25;;
56181;SDS011;51963;46.052;14.544;2024-03-02T12:43:18;16.50;;;8.82;;
56181;SDS011;51963;46.052;14.544;2024-03-02T12:45:44;16.77;;;7.95;;
56181;SDS011;51963;46.052;14.544;2024-03-02T12:48:10;15.65;;;8.65;;
56181;SDS011;51963;46.052;14.544;2024-03-02T12:51:59;14.32;;;8.20;;
56181;SDS011;51963;46.052;14.544;2024-03-02T12:54:25;16.23;;;7.57;;
56181;SDS011;51963;46.052;14.544;2024-03-02T12:56:52;13.73;;;7.57;;
56181;SDS011;51963;46.052;14.544;2024-03-02T12:59:20;16.50;;;7.75;;
56181;SDS011;51963;46.052;14.544;2024-03-02T13:05:13;14.80;;;6.07;;
56181;SDS011;51963;46.052;14.544;2024-03-02T13:07:38;16.00;;;7.78;;
56181;SDS011;51963;46.052;14.544;2024-03-02T13:10:04;10.00;;;5.03;;
56181;SDS011;51963;46.052;14.544;2024-03-02T13:12:32;10.50;;;5.05;;
56181;SDS011;51963;46.052;14.544;2024-03-02T13:15:01;10.95;;;5.50;;
56181;SDS011;51963;46.052;14.544;2024-03-02T13:17:29;8.63;;;4.85;;
56181;SDS011;51963;46.052;14.544;2024-03-02T13:19:55;10.43;;;5.60;;
56181;SDS011;51963;46.052;14.544;2024-03-02T13:22:22;11.80;;;5.63;;
56181;SDS011;51963;46.052;14.544;2024-03-02T13:24:51;10.02;;;5.00;;
56181;SDS011;51963;46.052;14.544;2024-03-02T13:27:22;7.38;;;4.55;;
56181;SDS011;51963;46.052;14.544;2024-03-02T13:29:47;6.22;;;3.33;;
56181;SDS011;51963;46.052;14.544;2024-03-02T13:32:14;5.97;;;3.30;;
56181;SDS011;51963;46.052;14.544;2024-03-02T13:34:40;6.57;;;3.08;;
56181;SDS011;51963;46.052;14.544;2024-03-02T13:37:05;6.53;;;3.13;;
56181;SDS011;51963;46.052;14.544;2024-03-02T13:39:31;3.65;;;2.30;;
56181;SDS011;51963;46.052;14.544;2024-03-02T13:41:58;4.32;;;2.45;;
56181;SDS011;51963;46.052;14.544;2024-03-02T13:44:31;3.22;;;2.20;;
56181;SDS011;51963;46.052;14.544;2024-03-02T13:46:58;4.45;;;2.28;;
56181;SDS011;51963;46.052;14.544;2024-03-02T13:49:25;5.55;;;3.15;;
56181;SDS011;51963;46.052;14.544;2024-03-02T13:52:08;6.20;;;3.05;;
56181;SDS011;51963;46.052;14.544;2024-03-02T13:54:51;6.38;;;3.78;;
56181;SDS011;51963;46.052;14.544;2024-03-02T13:57:23;5.28;;;2.95;;
56181;SDS011;51963;46.052;14.544;2024-03-02T13:59:49;4.65;;;3.33;;
56181;SDS011;51963;46.052;14.544;2024-03-02T14:02:22;4.37;;;2.87;;
56181;SDS011;51963;46.052;14.544;2024-03-02T14:05:05;6.47;;;3.40;;
56181;SDS011;51963;46.052;14.544;2024-03-02T14:07:31;5.72;;;3.53;;
56181;SDS011;51963;46.052;14.544;2024-03-02T14:09:56;7.00;;;3.35;;
56181;SDS011;51963;46.052;14.544;2024-03-02T14:12:26;5.88;;;2.88;;
56181;SDS011;51963;46.052;14.544;2024-03-02T14:14:54;4.60;;;2.42;;
56181;SDS011;51963;46.052;14.544;2024-03-02T14:17:26;3.72;;;2.20;;
56181;SDS011;51963;46.052;14.544;2024-03-02T14:19:51;1.63;;;1.13;;
56181;SDS011;51963;46.052;14.544;2024-03-02T14:22:19;1.35;;;0.60;;
56181;SDS011;51963;46.052;14.544;2024-03-02T14:24:46;1.38;;;0.63;;
56181;SDS011;51963;46.052;14.544;2024-03-02T14:27:13;1.70;;;0.82;;
56181;SDS011;51963;46.052;14.544;2024-03-02T14:29:40;1.02;;;0.55;;
56181;SDS011;51963;46.052;14.544;2024-03-02T14:32:07;1.65;;;0.65;;
56181;SDS011;51963;46.052;14.544;2024-03-02T14:34:32;0.75;;;0.45;;
56181;SDS011;51963;46.052;14.544;2024-03-02T14:36:58;0.80;;;0.60;;
56181;SDS011;51963;46.052;14.544;2024-03-02T14:39:25;4.30;;;2.00;;
56181;SDS011;51963;46.052;14.544;2024-03-02T14:41:54;2.45;;;1.27;;
56181;SDS011;51963;46.052;14.544;2024-03-02T14:44:21;2.38;;;1.33;;
56181;SDS011;51963;46.052;14.544;2024-03-02T14:46:46;1.38;;;0.70;;
56181;SDS011;51963;46.052;14.544;2024-03-02T14:49:13;0.70;;;0.50;;
56181;SDS011;51963;46.052;14.544;2024-03-02T14:51:39;0.95;;;0.28;;
56181;SDS011;51963;46.052;14.544;2024-03-02T14:54:07;2.50;;;1.00;;
56181;SDS011;51963;46.052;14.544;2024-03-02T14:56:33;2.20;;;0.73;;
56181;SDS011;51963;46.052;14.544;2024-03-02T14:58:59;1.10;;;0.70;;
56181;SDS011;51963;46.052;14.544;2024-03-02T15:01:24;0.85;;;0.45;;
56181;SDS011;51963;46.052;14.544;2024-03-02T15:03:50;1.73;;;0.70;;
56181;SDS011;51963;46.052;14.544;2024-03-02T15:06:16;0.40;;;0.40;;
56181;SDS011;51963;46.052;14.544;2024-03-02T15:08:42;1.83;;;0.40;;
56181;SDS011;51963;46.052;14.544;2024-03-02T15:11:08;3.70;;;1.08;;
56181;SDS011;51963;46.052;14.544;2024-03-02T15:13:34;4.22;;;1.08;;